sensor_id;sensor_type;location;lat;lon;timestamp;P1;durP1;ratioP1;P2;durP2;ratioP2
3841;SDS011;1936;47.074;15.336;2023-05-07T00:00:08;11.50;;;10.30;;
3841;SDS011;1936;47.074;15.336;2023-05-07T00:02:14;10.67;;;9.57;;
3841;SDS011;1936;47.074;15.336;2023-05-07T00:04:18;13.37;;;10.00;;
3841;SDS011;1936;47.074;15.336;2023-05-07T00:06:22;12.20;;;10.90;;
3841;SDS011;1936;47.074;15.336;2023-05-07T00:08:27;14.00;;;12.00;;
3841;SDS011;1936;47.074;15.336;2023-05-07T00:10:30;12.00;;;10.80;;
3841;SDS011;1936;47.074;15.336;2023-05-07T00:12:34;14.07;;;11.67;;
3841;SDS011;1936;47.074;15.336;2023-05-07T00:14:37;12.30;;;11.10;;
3841;SDS011;1936;47.074;15.336;2023-05-07T00:16:41;11.97;;;10.83;;
3841;SDS011;1936;47.074;15.336;2023-05-07T00:18:47;11.57;;;9.00;;
3841;SDS011;1936;47.074;15.336;2023-05-07T00:20:50;10.33;;;8.90;;
3841;SDS011;1936;47.074;15.336;2023-05-07T00:22:54;10.17;;;9.17;;
3841;SDS011;1936;47.074;15.336;2023-05-07T00:24:57;9.27;;;8.27;;
3841;SDS011;1936;47.074;15.336;2023-05-07T00:27:01;13.13;;;9.30;;
3841;SDS011;1936;47.074;15.336;2023-05-07T00:29:04;9.00;;;8.17;;
3841;SDS011;1936;47.074;15.336;2023-05-07T00:31:07;9.23;;;8.33;;
3841;SDS011;1936;47.074;15.336;2023-05-07T00:33:11;9.67;;;8.70;;
3841;SDS011;1936;47.074;15.336;2023-05-07T00:35:16;9.40;;;8.50;;
3841;SDS011;1936;47.074;15.336;2023-05-07T00:37:20;10.30;;;9.30;;
3841;SDS011;1936;47.074;15.336;2023-05-07T00:39:24;8.77;;;7.93;;
3841;SDS011;1936;47.074;15.336;2023-05-07T00:41:27;11.13;;;8.23;;
3841;SDS011;1936;47.074;15.336;2023-05-07T00:43:31;9.23;;;8.10;;
3841;SDS011;1936;47.074;15.336;2023-05-07T00:45:35;11.30;;;8.03;;
3841;SDS011;1936;47.074;15.336;2023-05-07T00:47:38;10.63;;;9.53;;
3841;SDS011;1936;47.074;15.336;2023-05-07T00:49:43;10.80;;;9.70;;
3841;SDS011;1936;47.074;15.336;2023-05-07T00:51:48;11.57;;;10.37;;
3841;SDS011;1936;47.074;15.336;2023-05-07T00:53:53;10.93;;;9.87;;
3841;SDS011;1936;47.074;15.336;2023-05-07T00:55:57;12.50;;;11.30;;
3841;SDS011;1936;47.074;15.336;2023-05-07T00:58:02;10.80;;;9.83;;
3841;SDS011;1936;47.074;15.336;2023-05-07T01:00:06;12.13;;;11.00;;
3841;SDS011;1936;47.074;15.336;2023-05-07T01:02:11;10.83;;;9.73;;
3841;SDS011;1936;47.074;15.336;2023-05-07T01:04:15;11.50;;;10.40;;
3841;SDS011;1936;47.074;15.336;2023-05-07T01:06:19;11.10;;;10.10;;
3841;SDS011;1936;47.074;15.336;2023-05-07T01:08:25;11.63;;;10.53;;
3841;SDS011;1936;47.074;15.336;2023-05-07T01:10:30;11.00;;;9.40;;
3841;SDS011;1936;47.074;15.336;2023-05-07T01:12:34;12.27;;;11.00;;
3841;SDS011;1936;47.074;15.336;2023-05-07T01:14:40;11.70;;;10.60;;
3841;SDS011;1936;47.074;15.336;2023-05-07T01:16:44;9.50;;;8.60;;
3841;SDS011;1936;47.074;15.336;2023-05-07T01:18:47;10.13;;;9.03;;
3841;SDS011;1936;47.074;15.336;2023-05-07T01:20:51;11.90;;;8.67;;
3841;SDS011;1936;47.074;15.336;2023-05-07T01:22:56;8.70;;;7.90;;
3841;SDS011;1936;47.074;15.336;2023-05-07T01:25:00;8.20;;;7.50;;
3841;SDS011;1936;47.074;15.336;2023-05-07T01:27:04;9.40;;;8.50;;
3841;SDS011;1936;47.074;15.336;2023-05-07T01:29:07;12.80;;;8.90;;
3841;SDS011;1936;47.074;15.336;2023-05-07T01:31:11;10.23;;;9.13;;
3841;SDS011;1936;47.074;15.336;2023-05-07T01:33:17;9.10;;;8.07;;
3841;SDS011;1936;47.074;15.336;2023-05-07T01:35:24;7.77;;;6.97;;
3841;SDS011;1936;47.074;15.336;2023-05-07T01:37:31;7.87;;;7.00;;
3841;SDS011;1936;47.074;15.336;2023-05-07T01:39:37;9.17;;;7.40;;
3841;SDS011;1936;47.074;15.336;2023-05-07T01:41:42;7.73;;;6.93;;
3841;SDS011;1936;47.074;15.336;2023-05-07T01:43:46;7.27;;;6.63;;
3841;SDS011;1936;47.074;15.336;2023-05-07T01:45:50;6.00;;;5.40;;
3841;SDS011;1936;47.074;15.336;2023-05-07T01:47:56;4.93;;;4.43;;
3841;SDS011;1936;47.074;15.336;2023-05-07T01:50:01;4.67;;;4.10;;
3841;SDS011;1936;47.074;15.336;2023-05-07T01:52:04;4.53;;;4.10;;
3841;SDS011;1936;47.074;15.336;2023-05-07T01:54:08;5.80;;;5.30;;
3841;SDS011;1936;47.074;15.336;2023-05-07T01:56:13;5.63;;;4.80;;
3841;SDS011;1936;47.074;15.336;2023-05-07T01:58:16;4.67;;;4.27;;
3841;SDS011;1936;47.074;15.336;2023-05-07T02:00:20;5.23;;;3.70;;
3841;SDS011;1936;47.074;15.336;2023-05-07T02:02:24;3.80;;;3.30;;
3841;SDS011;1936;47.074;15.336;2023-05-07T02:04:28;4.97;;;4.47;;
3841;SDS011;1936;47.074;15.336;2023-05-07T02:06:32;5.27;;;4.87;;
3841;SDS011;1936;47.074;15.336;2023-05-07T02:08:35;6.00;;;5.40;;
3841;SDS011;1936;47.074;15.336;2023-05-07T02:10:39;6.03;;;5.40;;
3841;SDS011;1936;47.074;15.336;2023-05-07T02:12:44;5.40;;;4.90;;
3841;SDS011;1936;47.074;15.336;2023-05-07T02:14:47;5.90;;;5.27;;
3841;SDS011;1936;47.074;15.336;2023-05-07T02:16:51;6.83;;;6.13;;
3841;SDS011;1936;47.074;15.336;2023-05-07T02:18:54;5.27;;;4.77;;
3841;SDS011;1936;47.074;15.336;2023-05-07T02:20:58;6.43;;;4.83;;
3841;SDS011;1936;47.074;15.336;2023-05-07T02:23:01;8.77;;;4.90;;
3841;SDS011;1936;47.074;15.336;2023-05-07T02:25:05;4.20;;;3.60;;
3841;SDS011;1936;47.074;15.336;2023-05-07T02:27:09;5.60;;;3.70;;
3841;SDS011;1936;47.074;15.336;2023-05-07T02:29:14;4.53;;;4.13;;
3841;SDS011;1936;47.074;15.336;2023-05-07T02:31:17;6.80;;;4.17;;
3841;SDS011;1936;47.074;15.336;2023-05-07T02:33:21;7.27;;;5.00;;
3841;SDS011;1936;47.074;15.336;2023-05-07T02:35:24;6.43;;;5.83;;
3841;SDS011;1936;47.074;15.336;2023-05-07T02:37:28;6.27;;;5.67;;
3841;SDS011;1936;47.074;15.336;2023-05-07T02:39:32;6.00;;;4.80;;
3841;SDS011;1936;47.074;15.336;2023-05-07T02:41:35;6.70;;;6.10;;
3841;SDS011;1936;47.074;15.336;2023-05-07T02:43:39;5.80;;;5.30;;
3841;SDS011;1936;47.074;15.336;2023-05-07T02:45:44;7.23;;;5.30;;
3841;SDS011;1936;47.074;15.336;2023-05-07T02:47:47;6.27;;;5.23;;
3841;SDS011;1936;47.074;15.336;2023-05-07T02:49:50;7.03;;;5.20;;
3841;SDS011;1936;47.074;15.336;2023-05-07T02:51:54;8.03;;;5.20;;
3841;SDS011;1936;47.074;15.336;2023-05-07T02:53:57;6.13;;;5.53;;
3841;SDS011;1936;47.074;15.336;2023-05-07T02:56:02;6.63;;;5.80;;
3841;SDS011;1936;47.074;15.336;2023-05-07T02:58:07;5.70;;;5.20;;
3841;SDS011;1936;47.074;15.336;2023-05-07T03:00:11;7.17;;;5.60;;
3841;SDS011;1936;47.074;15.336;2023-05-07T03:02:21;5.90;;;5.30;;
3841;SDS011;1936;47.074;15.336;2023-05-07T03:04:25;7.00;;;5.93;;
3841;SDS011;1936;47.074;15.336;2023-05-07T03:06:28;6.67;;;5.60;;
3841;SDS011;1936;47.074;15.336;2023-05-07T03:08:31;6.00;;;5.20;;
3841;SDS011;1936;47.074;15.336;2023-05-07T03:10:35;5.40;;;4.90;;
3841;SDS011;1936;47.074;15.336;2023-05-07T03:12:39;9.90;;;6.10;;
3841;SDS011;1936;47.074;15.336;2023-05-07T03:14:42;7.03;;;6.33;;
3841;SDS011;1936;47.074;15.336;2023-05-07T03:16:46;6.10;;;5.40;;
3841;SDS011;1936;47.074;15.336;2023-05-07T03:18:50;6.53;;;5.67;;
3841;SDS011;1936;47.074;15.336;2023-05-07T03:20:54;6.23;;;5.27;;
3841;SDS011;1936;47.074;15.336;2023-05-07T03:22:57;5.87;;;5.37;;
3841;SDS011;1936;47.074;15.336;2023-05-07T03:25:01;6.87;;;5.00;;
3841;SDS011;1936;47.074;15.336;2023-05-07T03:27:05;6.70;;;5.50;;
3841;SDS011;1936;47.074;15.336;2023-05-07T03:29:09;8.87;;;4.70;;
3841;SDS011;1936;47.074;15.336;2023-05-07T03:31:12;5.97;;;5.37;;
3841;SDS011;1936;47.074;15.336;2023-05-07T03:33:16;5.77;;;5.27;;
3841;SDS011;1936;47.074;15.336;2023-05-07T03:35:22;6.30;;;5.37;;
3841;SDS011;1936;47.074;15.336;2023-05-07T03:37:26;8.23;;;5.27;;
3841;SDS011;1936;47.074;15.336;2023-05-07T03:39:29;7.50;;;5.23;;
3841;SDS011;1936;47.074;15.336;2023-05-07T03:41:33;6.97;;;5.33;;
3841;SDS011;1936;47.074;15.336;2023-05-07T03:43:36;5.73;;;5.20;;
3841;SDS011;1936;47.074;15.336;2023-05-07T03:45:40;6.50;;;5.07;;
3841;SDS011;1936;47.074;15.336;2023-05-07T03:47:43;5.50;;;5.00;;
3841;SDS011;1936;47.074;15.336;2023-05-07T03:49:47;5.93;;;5.33;;
3841;SDS011;1936;47.074;15.336;2023-05-07T03:51:53;6.80;;;5.93;;
3841;SDS011;1936;47.074;15.336;2023-05-07T03:53:57;6.53;;;5.57;;
3841;SDS011;1936;47.074;15.336;2023-05-07T03:56:00;7.67;;;5.50;;
3841;SDS011;1936;47.074;15.336;2023-05-07T03:58:04;8.80;;;6.27;;
3841;SDS011;1936;47.074;15.336;2023-05-07T04:00:07;6.00;;;5.43;;
3841;SDS011;1936;47.074;15.336;2023-05-07T04:02:12;9.80;;;5.07;;
3841;SDS011;1936;47.074;15.336;2023-05-07T04:04:16;12.00;;;5.57;;
3841;SDS011;1936;47.074;15.336;2023-05-07T04:06:19;6.00;;;4.70;;
3841;SDS011;1936;47.074;15.336;2023-05-07T04:08:25;6.77;;;4.87;;
3841;SDS011;1936;47.074;15.336;2023-05-07T04:10:29;5.20;;;4.70;;
3841;SDS011;1936;47.074;15.336;2023-05-07T04:12:32;5.43;;;4.93;;
3841;SDS011;1936;47.074;15.336;2023-05-07T04:14:36;7.20;;;5.33;;
3841;SDS011;1936;47.074;15.336;2023-05-07T04:16:39;4.80;;;4.30;;
3841;SDS011;1936;47.074;15.336;2023-05-07T04:18:43;4.50;;;4.10;;
3841;SDS011;1936;47.074;15.336;2023-05-07T04:20:47;5.90;;;4.60;;
3841;SDS011;1936;47.074;15.336;2023-05-07T04:22:51;4.80;;;4.27;;
3841;SDS011;1936;47.074;15.336;2023-05-07T04:24:56;5.87;;;4.43;;
3841;SDS011;1936;47.074;15.336;2023-05-07T04:26:59;4.50;;;4.10;;
3841;SDS011;1936;47.074;15.336;2023-05-07T04:29:03;5.20;;;4.70;;
3841;SDS011;1936;47.074;15.336;2023-05-07T04:31:07;4.70;;;4.10;;
3841;SDS011;1936;47.074;15.336;2023-05-07T04:33:11;5.67;;;4.13;;
3841;SDS011;1936;47.074;15.336;2023-05-07T04:35:14;4.40;;;4.00;;
3841;SDS011;1936;47.074;15.336;2023-05-07T04:37:18;4.27;;;3.70;;
3841;SDS011;1936;47.074;15.336;2023-05-07T04:39:22;5.13;;;4.30;;
3841;SDS011;1936;47.074;15.336;2023-05-07T04:41:27;4.60;;;4.20;;
3841;SDS011;1936;47.074;15.336;2023-05-07T04:43:30;4.90;;;4.30;;
3841;SDS011;1936;47.074;15.336;2023-05-07T04:45:34;4.53;;;3.83;;
3841;SDS011;1936;47.074;15.336;2023-05-07T04:47:38;5.47;;;4.17;;
3841;SDS011;1936;47.074;15.336;2023-05-07T04:49:42;5.30;;;4.00;;
3841;SDS011;1936;47.074;15.336;2023-05-07T04:51:45;5.90;;;4.60;;
3841;SDS011;1936;47.074;15.336;2023-05-07T04:53:49;4.90;;;4.50;;
3841;SDS011;1936;47.074;15.336;2023-05-07T04:55:54;3.70;;;3.40;;
3841;SDS011;1936;47.074;15.336;2023-05-07T04:58:00;4.60;;;3.77;;
3841;SDS011;1936;47.074;15.336;2023-05-07T05:00:04;7.50;;;4.10;;
3841;SDS011;1936;47.074;15.336;2023-05-07T05:02:10;5.00;;;4.57;;
3841;SDS011;1936;47.074;15.336;2023-05-07T05:04:14;4.43;;;4.03;;
3841;SDS011;1936;47.074;15.336;2023-05-07T05:06:17;4.70;;;4.30;;
3841;SDS011;1936;47.074;15.336;2023-05-07T05:08:21;5.10;;;4.03;;
3841;SDS011;1936;47.074;15.336;2023-05-07T05:10:24;4.70;;;3.37;;
3841;SDS011;1936;47.074;15.336;2023-05-07T05:12:28;8.90;;;4.23;;
3841;SDS011;1936;47.074;15.336;2023-05-07T05:14:34;4.27;;;3.67;;
3841;SDS011;1936;47.074;15.336;2023-05-07T05:16:38;3.80;;;3.50;;
3841;SDS011;1936;47.074;15.336;2023-05-07T05:18:42;6.43;;;4.17;;
3841;SDS011;1936;47.074;15.336;2023-05-07T05:20:46;5.70;;;4.27;;
3841;SDS011;1936;47.074;15.336;2023-05-07T05:22:49;4.53;;;3.80;;
3841;SDS011;1936;47.074;15.336;2023-05-07T05:25:00;4.70;;;4.30;;
3841;SDS011;1936;47.074;15.336;2023-05-07T05:27:05;5.80;;;4.00;;
3841;SDS011;1936;47.074;15.336;2023-05-07T05:29:11;4.40;;;3.93;;
3841;SDS011;1936;47.074;15.336;2023-05-07T05:31:17;8.53;;;5.50;;
3841;SDS011;1936;47.074;15.336;2023-05-07T05:33:21;9.10;;;4.67;;
3841;SDS011;1936;47.074;15.336;2023-05-07T05:35:31;5.40;;;3.57;;
3841;SDS011;1936;47.074;15.336;2023-05-07T05:37:35;4.47;;;3.80;;
3841;SDS011;1936;47.074;15.336;2023-05-07T05:39:39;4.40;;;3.63;;
3841;SDS011;1936;47.074;15.336;2023-05-07T05:41:43;4.10;;;3.70;;
3841;SDS011;1936;47.074;15.336;2023-05-07T05:43:49;7.53;;;3.93;;
3841;SDS011;1936;47.074;15.336;2023-05-07T05:45:53;5.40;;;4.20;;
3841;SDS011;1936;47.074;15.336;2023-05-07T05:47:59;3.47;;;3.17;;
3841;SDS011;1936;47.074;15.336;2023-05-07T05:50:04;4.50;;;4.10;;
3841;SDS011;1936;47.074;15.336;2023-05-07T05:52:09;6.17;;;3.50;;
3841;SDS011;1936;47.074;15.336;2023-05-07T05:54:14;3.70;;;3.40;;
3841;SDS011;1936;47.074;15.336;2023-05-07T05:56:18;4.10;;;3.03;;
3841;SDS011;1936;47.074;15.336;2023-05-07T05:58:22;4.77;;;3.47;;
3841;SDS011;1936;47.074;15.336;2023-05-07T06:00:26;3.80;;;3.13;;
3841;SDS011;1936;47.074;15.336;2023-05-07T06:02:29;4.53;;;3.07;;
3841;SDS011;1936;47.074;15.336;2023-05-07T06:04:37;3.93;;;3.63;;
3841;SDS011;1936;47.074;15.336;2023-05-07T06:06:41;3.93;;;3.63;;
3841;SDS011;1936;47.074;15.336;2023-05-07T06:08:46;5.47;;;3.57;;
3841;SDS011;1936;47.074;15.336;2023-05-07T06:10:50;3.33;;;3.03;;
3841;SDS011;1936;47.074;15.336;2023-05-07T06:12:54;3.17;;;2.87;;
3841;SDS011;1936;47.074;15.336;2023-05-07T06:14:59;4.30;;;3.60;;
3841;SDS011;1936;47.074;15.336;2023-05-07T06:17:05;3.47;;;3.17;;
3841;SDS011;1936;47.074;15.336;2023-05-07T06:19:12;3.33;;;2.73;;
3841;SDS011;1936;47.074;15.336;2023-05-07T06:21:20;2.60;;;2.40;;
3841;SDS011;1936;47.074;15.336;2023-05-07T06:23:24;3.10;;;2.80;;
3841;SDS011;1936;47.074;15.336;2023-05-07T06:25:28;4.07;;;2.47;;
3841;SDS011;1936;47.074;15.336;2023-05-07T06:27:31;2.90;;;2.60;;
3841;SDS011;1936;47.074;15.336;2023-05-07T06:29:35;3.60;;;3.03;;
3841;SDS011;1936;47.074;15.336;2023-05-07T06:31:38;2.70;;;2.50;;
3841;SDS011;1936;47.074;15.336;2023-05-07T06:33:43;4.03;;;2.53;;
3841;SDS011;1936;47.074;15.336;2023-05-07T06:35:47;1.90;;;1.80;;
3841;SDS011;1936;47.074;15.336;2023-05-07T06:37:52;4.13;;;1.43;;
3841;SDS011;1936;47.074;15.336;2023-05-07T06:39:56;3.53;;;1.87;;
3841;SDS011;1936;47.074;15.336;2023-05-07T06:42:01;2.80;;;2.47;;
3841;SDS011;1936;47.074;15.336;2023-05-07T06:44:06;1.97;;;1.77;;
3841;SDS011;1936;47.074;15.336;2023-05-07T06:46:10;2.40;;;2.10;;
3841;SDS011;1936;47.074;15.336;2023-05-07T06:48:14;5.30;;;1.80;;
3841;SDS011;1936;47.074;15.336;2023-05-07T06:50:18;2.40;;;1.60;;
3841;SDS011;1936;47.074;15.336;2023-05-07T06:52:22;2.40;;;1.80;;
3841;SDS011;1936;47.074;15.336;2023-05-07T06:54:28;2.00;;;1.80;;
3841;SDS011;1936;47.074;15.336;2023-05-07T06:56:32;8.07;;;1.67;;
3841;SDS011;1936;47.074;15.336;2023-05-07T06:58:36;2.17;;;1.97;;
3841;SDS011;1936;47.074;15.336;2023-05-07T07:00:40;2.07;;;1.87;;
3841;SDS011;1936;47.074;15.336;2023-05-07T07:02:44;1.97;;;1.77;;
3841;SDS011;1936;47.074;15.336;2023-05-07T07:04:48;3.20;;;1.93;;
3841;SDS011;1936;47.074;15.336;2023-05-07T07:06:52;1.80;;;1.70;;
3841;SDS011;1936;47.074;15.336;2023-05-07T07:08:58;2.00;;;1.90;;
3841;SDS011;1936;47.074;15.336;2023-05-07T07:11:03;4.70;;;1.83;;
3841;SDS011;1936;47.074;15.336;2023-05-07T07:13:07;1.87;;;1.43;;
3841;SDS011;1936;47.074;15.336;2023-05-07T07:15:10;2.13;;;1.73;;
3841;SDS011;1936;47.074;15.336;2023-05-07T07:17:14;2.27;;;1.90;;
3841;SDS011;1936;47.074;15.336;2023-05-07T07:19:18;2.83;;;2.07;;
3841;SDS011;1936;47.074;15.336;2023-05-07T07:21:22;4.53;;;2.10;;
3841;SDS011;1936;47.074;15.336;2023-05-07T07:23:26;1.97;;;1.87;;
3841;SDS011;1936;47.074;15.336;2023-05-07T07:25:30;2.50;;;2.30;;
3841;SDS011;1936;47.074;15.336;2023-05-07T07:27:39;2.20;;;2.10;;
3841;SDS011;1936;47.074;15.336;2023-05-07T07:29:44;2.20;;;1.93;;
3841;SDS011;1936;47.074;15.336;2023-05-07T07:31:48;2.03;;;1.60;;
3841;SDS011;1936;47.074;15.336;2023-05-07T07:33:52;2.70;;;2.40;;
3841;SDS011;1936;47.074;15.336;2023-05-07T07:35:56;3.90;;;2.33;;
3841;SDS011;1936;47.074;15.336;2023-05-07T07:37:59;2.53;;;2.33;;
3841;SDS011;1936;47.074;15.336;2023-05-07T07:40:04;2.63;;;2.43;;
3841;SDS011;1936;47.074;15.336;2023-05-07T07:42:11;3.03;;;1.67;;
3841;SDS011;1936;47.074;15.336;2023-05-07T07:44:17;3.13;;;2.45;;
3841;SDS011;1936;47.074;15.336;2023-05-07T07:46:23;2.00;;;1.77;;
3841;SDS011;1936;47.074;15.336;2023-05-07T07:48:28;2.40;;;2.30;;
3841;SDS011;1936;47.074;15.336;2023-05-07T07:50:31;3.03;;;2.20;;
3841;SDS011;1936;47.074;15.336;2023-05-07T07:52:45;1.97;;;1.87;;
3841;SDS011;1936;47.074;15.336;2023-05-07T07:54:49;2.67;;;2.47;;
3841;SDS011;1936;47.074;15.336;2023-05-07T07:56:53;3.30;;;2.10;;
3841;SDS011;1936;47.074;15.336;2023-05-07T07:58:57;2.63;;;2.43;;
3841;SDS011;1936;47.074;15.336;2023-05-07T08:01:08;3.30;;;2.00;;
3841;SDS011;1936;47.074;15.336;2023-05-07T08:03:13;3.13;;;2.83;;
3841;SDS011;1936;47.074;15.336;2023-05-07T08:05:18;3.47;;;3.17;;
3841;SDS011;1936;47.074;15.336;2023-05-07T08:07:21;3.33;;;2.30;;
3841;SDS011;1936;47.074;15.336;2023-05-07T08:09:25;3.60;;;2.97;;
3841;SDS011;1936;47.074;15.336;2023-05-07T08:11:29;2.97;;;2.77;;
3841;SDS011;1936;47.074;15.336;2023-05-07T08:13:33;2.60;;;2.40;;
3841;SDS011;1936;47.074;15.336;2023-05-07T08:15:41;2.43;;;2.23;;
3841;SDS011;1936;47.074;15.336;2023-05-07T08:17:48;3.27;;;2.43;;
3841;SDS011;1936;47.074;15.336;2023-05-07T08:19:52;2.37;;;2.17;;
3841;SDS011;1936;47.074;15.336;2023-05-07T08:22:02;3.60;;;2.27;;
3841;SDS011;1936;47.074;15.336;2023-05-07T08:24:06;2.67;;;2.30;;
3841;SDS011;1936;47.074;15.336;2023-05-07T08:26:09;2.50;;;2.30;;
3841;SDS011;1936;47.074;15.336;2023-05-07T08:28:13;2.13;;;1.83;;
3841;SDS011;1936;47.074;15.336;2023-05-07T08:30:16;2.07;;;1.93;;
3841;SDS011;1936;47.074;15.336;2023-05-07T08:32:20;3.20;;;3.00;;
3841;SDS011;1936;47.074;15.336;2023-05-07T08:34:25;2.50;;;2.20;;
3841;SDS011;1936;47.074;15.336;2023-05-07T08:36:29;4.53;;;2.03;;
3841;SDS011;1936;47.074;15.336;2023-05-07T08:38:33;3.00;;;2.80;;
3841;SDS011;1936;47.074;15.336;2023-05-07T08:40:37;2.70;;;2.50;;
3841;SDS011;1936;47.074;15.336;2023-05-07T08:42:48;3.47;;;3.17;;
3841;SDS011;1936;47.074;15.336;2023-05-07T08:44:57;2.77;;;2.57;;
3841;SDS011;1936;47.074;15.336;2023-05-07T08:47:05;3.10;;;2.30;;
3841;SDS011;1936;47.074;15.336;2023-05-07T08:49:12;4.50;;;2.80;;
3841;SDS011;1936;47.074;15.336;2023-05-07T08:51:19;3.50;;;2.10;;
3841;SDS011;1936;47.074;15.336;2023-05-07T08:53:24;3.07;;;2.50;;
3841;SDS011;1936;47.074;15.336;2023-05-07T08:55:33;2.20;;;2.10;;
3841;SDS011;1936;47.074;15.336;2023-05-07T08:57:59;2.60;;;2.40;;
3841;SDS011;1936;47.074;15.336;2023-05-07T09:00:14;2.17;;;2.03;;
3841;SDS011;1936;47.074;15.336;2023-05-07T09:02:18;2.47;;;2.27;;
3841;SDS011;1936;47.074;15.336;2023-05-07T09:04:22;2.40;;;2.20;;
3841;SDS011;1936;47.074;15.336;2023-05-07T09:06:28;2.83;;;2.63;;
3841;SDS011;1936;47.074;15.336;2023-05-07T09:08:32;5.40;;;2.70;;
3841;SDS011;1936;47.074;15.336;2023-05-07T09:10:37;2.00;;;1.90;;
3841;SDS011;1936;47.074;15.336;2023-05-07T09:12:40;5.07;;;2.27;;
3841;SDS011;1936;47.074;15.336;2023-05-07T09:14:44;1.90;;;1.80;;
3841;SDS011;1936;47.074;15.336;2023-05-07T09:16:48;2.93;;;2.10;;
3841;SDS011;1936;47.074;15.336;2023-05-07T09:18:52;3.30;;;2.30;;
3841;SDS011;1936;47.074;15.336;2023-05-07T09:20:57;3.80;;;2.23;;
3841;SDS011;1936;47.074;15.336;2023-05-07T09:23:02;4.40;;;4.10;;
3841;SDS011;1936;47.074;15.336;2023-05-07T09:25:06;3.63;;;3.33;;
3841;SDS011;1936;47.074;15.336;2023-05-07T09:27:11;3.17;;;2.87;;
3841;SDS011;1936;47.074;15.336;2023-05-07T09:29:15;3.20;;;2.30;;
3841;SDS011;1936;47.074;15.336;2023-05-07T09:31:19;2.30;;;2.10;;
3841;SDS011;1936;47.074;15.336;2023-05-07T09:33:26;21.13;;;19.60;;
3841;SDS011;1936;47.074;15.336;2023-05-07T09:35:31;2.73;;;2.53;;
3841;SDS011;1936;47.074;15.336;2023-05-07T09:37:34;2.30;;;2.10;;
3841;SDS011;1936;47.074;15.336;2023-05-07T09:39:40;2.07;;;1.97;;
3841;SDS011;1936;47.074;15.336;2023-05-07T09:41:44;2.33;;;2.17;;
3841;SDS011;1936;47.074;15.336;2023-05-07T09:43:48;2.07;;;1.97;;
3841;SDS011;1936;47.074;15.336;2023-05-07T09:45:57;2.83;;;2.47;;
3841;SDS011;1936;47.074;15.336;2023-05-07T09:48:01;3.13;;;1.93;;
3841;SDS011;1936;47.074;15.336;2023-05-07T09:50:09;2.47;;;2.00;;
3841;SDS011;1936;47.074;15.336;2023-05-07T09:52:14;6.27;;;5.70;;
3841;SDS011;1936;47.074;15.336;2023-05-07T09:54:18;4.20;;;2.00;;
3841;SDS011;1936;47.074;15.336;2023-05-07T09:56:23;2.73;;;2.47;;
3841;SDS011;1936;47.074;15.336;2023-05-07T09:58:28;1.97;;;1.87;;
3841;SDS011;1936;47.074;15.336;2023-05-07T10:00:31;1.60;;;1.50;;
3841;SDS011;1936;47.074;15.336;2023-05-07T10:02:39;1.93;;;1.73;;
3841;SDS011;1936;47.074;15.336;2023-05-07T10:04:47;3.53;;;2.80;;
3841;SDS011;1936;47.074;15.336;2023-05-07T10:06:51;3.80;;;2.47;;
3841;SDS011;1936;47.074;15.336;2023-05-07T10:08:57;2.97;;;2.67;;
3841;SDS011;1936;47.074;15.336;2023-05-07T10:11:01;1.70;;;1.60;;
3841;SDS011;1936;47.074;15.336;2023-05-07T10:13:08;2.30;;;2.10;;
3841;SDS011;1936;47.074;15.336;2023-05-07T10:15:12;3.30;;;2.93;;
3841;SDS011;1936;47.074;15.336;2023-05-07T10:17:17;10.60;;;9.70;;
3841;SDS011;1936;47.074;15.336;2023-05-07T10:19:20;2.90;;;2.70;;
3841;SDS011;1936;47.074;15.336;2023-05-07T10:21:27;4.17;;;3.87;;
3841;SDS011;1936;47.074;15.336;2023-05-07T10:23:33;3.23;;;2.80;;
3841;SDS011;1936;47.074;15.336;2023-05-07T10:25:37;4.90;;;4.50;;
3841;SDS011;1936;47.074;15.336;2023-05-07T10:27:40;8.40;;;5.70;;
3841;SDS011;1936;47.074;15.336;2023-05-07T10:29:49;3.60;;;3.30;;
3841;SDS011;1936;47.074;15.336;2023-05-07T10:32:01;3.00;;;2.20;;
3841;SDS011;1936;47.074;15.336;2023-05-07T10:34:19;2.60;;;2.40;;
3841;SDS011;1936;47.074;15.336;2023-05-07T10:36:25;5.60;;;2.00;;
3841;SDS011;1936;47.074;15.336;2023-05-07T10:38:29;9.30;;;2.20;;
3841;SDS011;1936;47.074;15.336;2023-05-07T10:40:33;2.97;;;2.77;;
3841;SDS011;1936;47.074;15.336;2023-05-07T10:42:37;7.37;;;2.73;;
3841;SDS011;1936;47.074;15.336;2023-05-07T10:44:40;2.33;;;2.13;;
3841;SDS011;1936;47.074;15.336;2023-05-07T10:46:45;3.40;;;2.50;;
3841;SDS011;1936;47.074;15.336;2023-05-07T10:49:07;1.80;;;1.70;;
3841;SDS011;1936;47.074;15.336;2023-05-07T10:51:19;1.87;;;1.70;;
3841;SDS011;1936;47.074;15.336;2023-05-07T10:53:24;2.50;;;1.77;;
3841;SDS011;1936;47.074;15.336;2023-05-07T10:55:29;2.17;;;1.97;;
3841;SDS011;1936;47.074;15.336;2023-05-07T10:57:33;2.40;;;1.60;;
3841;SDS011;1936;47.074;15.336;2023-05-07T10:59:40;2.37;;;2.17;;
3841;SDS011;1936;47.074;15.336;2023-05-07T11:01:52;2.63;;;2.23;;
3841;SDS011;1936;47.074;15.336;2023-05-07T11:04:15;2.03;;;1.90;;
3841;SDS011;1936;47.074;15.336;2023-05-07T11:06:26;2.70;;;2.30;;
3841;SDS011;1936;47.074;15.336;2023-05-07T11:08:33;3.00;;;2.40;;
3841;SDS011;1936;47.074;15.336;2023-05-07T11:10:56;4.10;;;2.07;;
3841;SDS011;1936;47.074;15.336;2023-05-07T11:13:00;2.37;;;2.17;;
3841;SDS011;1936;47.074;15.336;2023-05-07T11:15:04;2.97;;;2.60;;
3841;SDS011;1936;47.074;15.336;2023-05-07T11:17:11;2.67;;;1.97;;
3841;SDS011;1936;47.074;15.336;2023-05-07T11:19:14;2.37;;;2.10;;
3841;SDS011;1936;47.074;15.336;2023-05-07T11:21:31;2.40;;;2.20;;
3841;SDS011;1936;47.074;15.336;2023-05-07T11:23:57;2.33;;;2.00;;
3841;SDS011;1936;47.074;15.336;2023-05-07T11:26:02;3.20;;;1.77;;
3841;SDS011;1936;47.074;15.336;2023-05-07T11:28:07;5.60;;;2.40;;
3841;SDS011;1936;47.074;15.336;2023-05-07T11:30:16;2.03;;;1.73;;
3841;SDS011;1936;47.074;15.336;2023-05-07T11:32:23;2.17;;;2.07;;
3841;SDS011;1936;47.074;15.336;2023-05-07T11:34:27;2.00;;;1.80;;
3841;SDS011;1936;47.074;15.336;2023-05-07T11:36:30;5.27;;;3.23;;
3841;SDS011;1936;47.074;15.336;2023-05-07T11:38:35;2.20;;;2.00;;
3841;SDS011;1936;47.074;15.336;2023-05-07T11:40:48;2.90;;;2.47;;
3841;SDS011;1936;47.074;15.336;2023-05-07T11:42:52;2.40;;;2.20;;
3841;SDS011;1936;47.074;15.336;2023-05-07T11:44:55;2.90;;;2.70;;
3841;SDS011;1936;47.074;15.336;2023-05-07T11:46:59;2.80;;;2.60;;
3841;SDS011;1936;47.074;15.336;2023-05-07T11:49:04;3.00;;;2.70;;
3841;SDS011;1936;47.074;15.336;2023-05-07T11:51:08;6.20;;;2.33;;
3841;SDS011;1936;47.074;15.336;2023-05-07T11:53:13;2.87;;;2.67;;
3841;SDS011;1936;47.074;15.336;2023-05-07T11:55:19;2.30;;;2.10;;
3841;SDS011;1936;47.074;15.336;2023-05-07T11:57:24;3.17;;;2.87;;
3841;SDS011;1936;47.074;15.336;2023-05-07T11:59:28;2.50;;;2.30;;
3841;SDS011;1936;47.074;15.336;2023-05-07T12:01:31;2.33;;;2.13;;
3841;SDS011;1936;47.074;15.336;2023-05-07T12:03:34;1.90;;;1.80;;
3841;SDS011;1936;47.074;15.336;2023-05-07T12:05:41;2.93;;;2.70;;
3841;SDS011;1936;47.074;15.336;2023-05-07T12:07:44;4.53;;;2.87;;
3841;SDS011;1936;47.074;15.336;2023-05-07T12:09:48;2.60;;;2.27;;
3841;SDS011;1936;47.074;15.336;2023-05-07T12:11:52;5.53;;;2.73;;
3841;SDS011;1936;47.074;15.336;2023-05-07T12:13:57;2.63;;;2.43;;
3841;SDS011;1936;47.074;15.336;2023-05-07T12:16:01;2.50;;;2.30;;
3841;SDS011;1936;47.074;15.336;2023-05-07T12:18:05;3.50;;;2.23;;
3841;SDS011;1936;47.074;15.336;2023-05-07T12:20:10;6.07;;;2.30;;
3841;SDS011;1936;47.074;15.336;2023-05-07T12:22:15;3.33;;;3.03;;
3841;SDS011;1936;47.074;15.336;2023-05-07T12:24:18;5.97;;;2.80;;
3841;SDS011;1936;47.074;15.336;2023-05-07T12:26:22;2.80;;;2.60;;
3841;SDS011;1936;47.074;15.336;2023-05-07T12:28:26;3.13;;;2.93;;
3841;SDS011;1936;47.074;15.336;2023-05-07T12:30:30;2.70;;;2.50;;
3841;SDS011;1936;47.074;15.336;2023-05-07T12:32:34;2.80;;;2.50;;
3841;SDS011;1936;47.074;15.336;2023-05-07T12:34:39;2.60;;;2.40;;
3841;SDS011;1936;47.074;15.336;2023-05-07T12:36:46;3.63;;;2.60;;
3841;SDS011;1936;47.074;15.336;2023-05-07T12:38:52;4.83;;;2.40;;
3841;SDS011;1936;47.074;15.336;2023-05-07T12:40:57;2.20;;;2.10;;
3841;SDS011;1936;47.074;15.336;2023-05-07T12:43:01;4.07;;;2.67;;